createdAt,value
2018-07-02T00:00:02.665Z,17.39
2018-07-02T00:02:37.045Z,17.32
2018-07-02T00:05:11.806Z,17.27
2018-07-02T00:07:46.386Z,17.29
2018-07-02T00:10:20.906Z,17.31
2018-07-02T00:12:55.428Z,17.28
2018-07-02T00:15:30.010Z,17.20
2018-07-02T00:18:04.503Z,17.14
2018-07-02T00:20:39.020Z,17.11
2018-07-02T00:23:13.659Z,17.06
2018-07-02T00:25:48.236Z,17.07
2018-07-02T00:28:22.842Z,17.12
2018-07-02T00:30:57.378Z,17.10
2018-07-02T00:33:32.099Z,17.10
2018-07-02T00:36:06.668Z,17.08
2018-07-02T00:38:41.060Z,17.08
2018-07-02T00:41:15.724Z,17.06
2018-07-02T00:43:50.410Z,17.12
2018-07-02T00:46:25.032Z,17.06
2018-07-02T00:48:59.690Z,17.02
2018-07-02T00:51:34.364Z,16.93
2018-07-02T00:54:08.931Z,16.89
2018-07-02T00:56:43.575Z,16.93
2018-07-02T00:59:18.198Z,16.96
2018-07-02T01:01:52.762Z,17.02
2018-07-02T01:04:27.404Z,16.94
2018-07-02T01:07:01.959Z,17.00
2018-07-02T01:09:36.557Z,16.97
2018-07-02T01:12:10.980Z,16.96
2018-07-02T01:14:45.491Z,16.90
2018-07-02T01:17:20.033Z,16.94
2018-07-02T01:19:54.601Z,16.97
2018-07-02T01:22:29.134Z,16.96
2018-07-02T01:25:03.543Z,16.90
2018-07-02T01:27:38.099Z,16.87
2018-07-02T01:30:12.547Z,16.86
2018-07-02T01:32:47.138Z,16.87
2018-07-02T01:35:21.815Z,16.81
2018-07-02T01:37:56.505Z,16.78
2018-07-02T01:40:31.163Z,16.72
2018-07-02T01:43:05.786Z,16.69
2018-07-02T01:45:40.364Z,16.63
2018-07-02T01:48:14.960Z,16.58
2018-07-02T01:50:49.557Z,16.57
2018-07-02T01:53:23.900Z,16.55
2018-07-02T01:55:58.305Z,16.61
2018-07-02T01:58:32.604Z,16.57
2018-07-02T02:01:06.950Z,16.51
2018-07-02T02:03:41.355Z,16.44
2018-07-02T02:06:15.814Z,16.40
2018-07-02T02:08:50.223Z,16.40
2018-07-02T02:11:24.851Z,16.42
2018-07-02T02:13:59.391Z,16.39
2018-07-02T02:16:33.972Z,16.35
2018-07-02T02:19:08.629Z,16.35
2018-07-02T02:21:43.119Z,16.33
2018-07-02T02:24:17.684Z,16.30
2018-07-02T02:26:52.200Z,16.26
2018-07-02T02:29:26.650Z,16.28
2018-07-02T02:32:01.218Z,16.27
2018-07-02T02:34:35.886Z,16.23
2018-07-02T02:37:10.370Z,16.15
2018-07-02T02:39:58.904Z,16.10
2018-07-02T02:42:47.055Z,16.03
2018-07-02T02:45:21.381Z,16.08
2018-07-02T02:47:55.826Z,16.07
2018-07-02T02:50:30.372Z,16.09
2018-07-02T02:53:04.957Z,16.11
2018-07-02T02:55:39.464Z,16.09
2018-07-02T02:58:13.942Z,16.09
2018-07-02T03:00:48.548Z,16.14
2018-07-02T03:03:23.113Z,16.15
2018-07-02T03:05:57.492Z,16.13
2018-07-02T03:08:31.931Z,16.07
2018-07-02T03:11:06.537Z,16.13
2018-07-02T03:13:41.060Z,16.13
2018-07-02T03:16:15.614Z,16.13
2018-07-02T03:18:50.180Z,16.11
2018-07-02T03:21:24.747Z,16.10
2018-07-02T03:23:59.264Z,16.04
2018-07-02T03:26:55.790Z,16.00
2018-07-02T03:29:30.289Z,15.96
2018-07-02T03:32:04.941Z,16.00
2018-07-02T03:34:39.382Z,15.99
2018-07-02T03:37:13.792Z,16.00
2018-07-02T03:39:48.504Z,15.98
2018-07-02T03:42:23.146Z,16.03
2018-07-02T03:44:57.761Z,16.00
2018-07-02T03:47:32.342Z,16.02
2018-07-02T03:50:06.829Z,16.00
2018-07-02T03:52:41.606Z,16.08
2018-07-02T03:55:16.142Z,16.12
2018-07-02T03:57:50.750Z,16.13
2018-07-02T04:00:25.595Z,16.18
2018-07-02T04:02:59.921Z,16.25
2018-07-02T04:05:34.240Z,16.30
2018-07-02T04:08:08.641Z,16.32
2018-07-02T04:10:43.323Z,16.34
2018-07-02T04:13:17.812Z,16.38
2018-07-02T04:15:52.405Z,16.40
2018-07-02T04:18:26.869Z,16.41
2018-07-02T04:21:01.405Z,16.40
2018-07-02T04:23:35.894Z,16.33
2018-07-02T04:26:10.412Z,16.35
2018-07-02T04:28:44.840Z,16.39
2018-07-02T04:31:19.324Z,16.51
2018-07-02T04:33:53.788Z,16.51
2018-07-02T04:36:28.692Z,16.56
2018-07-02T04:39:03.886Z,16.65
2018-07-02T04:41:38.999Z,16.81
2018-07-02T04:44:13.454Z,16.89
2018-07-02T04:46:47.918Z,17.04
2018-07-02T04:49:22.616Z,17.19
2018-07-02T04:51:57.169Z,17.28
2018-07-02T04:54:31.803Z,17.41
2018-07-02T04:57:06.450Z,17.50
2018-07-02T04:59:41.139Z,17.56
2018-07-02T05:02:15.532Z,17.58
2018-07-02T05:04:50.244Z,17.61
2018-07-02T05:07:24.932Z,17.70
2018-07-02T05:09:59.399Z,17.81
2018-07-02T05:12:34.010Z,17.89
2018-07-02T05:15:08.593Z,17.84
2018-07-02T05:17:42.969Z,17.94
2018-07-02T05:20:17.404Z,18.00
2018-07-02T05:22:52.372Z,18.06
2018-07-02T05:25:26.597Z,18.15
2018-07-02T05:28:00.964Z,18.20
2018-07-02T05:30:35.759Z,18.34
2018-07-02T05:33:10.853Z,18.40
2018-07-02T05:35:45.356Z,18.50
2018-07-02T05:38:19.950Z,18.53
2018-07-02T05:40:54.812Z,18.62
2018-07-02T05:43:29.348Z,18.72
2018-07-02T05:46:03.993Z,18.94
2018-07-02T05:48:38.595Z,19.04
2018-07-02T05:51:12.868Z,19.04
2018-07-02T05:53:47.382Z,19.01
2018-07-02T05:56:22.060Z,19.16
2018-07-02T05:58:56.484Z,19.28
2018-07-02T06:01:31.051Z,19.26
2018-07-02T06:04:05.378Z,19.48
2018-07-02T06:06:39.909Z,19.57
2018-07-02T06:09:14.453Z,19.57
2018-07-02T06:11:49.012Z,19.68
2018-07-02T06:14:23.462Z,19.69
2018-07-02T06:16:57.954Z,19.88
2018-07-02T06:19:32.500Z,20.04
2018-07-02T06:22:06.953Z,20.14
2018-07-02T06:24:41.623Z,20.31
2018-07-02T06:27:16.028Z,20.31
2018-07-02T06:29:50.651Z,20.45
2018-07-02T06:32:25.286Z,20.72
2018-07-02T06:34:59.768Z,20.86
2018-07-02T06:37:34.237Z,21.07
2018-07-02T06:40:08.660Z,21.10
2018-07-02T06:42:43.149Z,22.10
2018-07-02T06:45:17.852Z,25.42
2018-07-02T06:47:52.457Z,28.13
2018-07-02T06:50:27.042Z,29.22
2018-07-02T06:53:01.490Z,29.86
2018-07-02T06:55:35.919Z,32.44
2018-07-02T06:58:10.361Z,32.07
2018-07-02T07:00:44.848Z,33.40
2018-07-02T07:03:19.220Z,33.64
2018-07-02T07:05:53.776Z,34.07
2018-07-02T07:08:28.388Z,33.34
2018-07-02T07:11:02.759Z,34.30
2018-07-02T07:13:37.241Z,33.73
2018-07-02T07:16:11.627Z,34.14
2018-07-02T07:18:45.876Z,34.29
2018-07-02T07:21:20.060Z,34.72
2018-07-02T07:23:54.504Z,35.33
2018-07-02T07:26:28.954Z,35.52
2018-07-02T07:29:03.360Z,34.94
2018-07-02T07:31:37.540Z,34.93
2018-07-02T07:34:11.876Z,34.78
2018-07-02T07:36:46.207Z,35.53
2018-07-02T07:39:20.429Z,36.82
2018-07-02T07:41:54.664Z,36.62
2018-07-02T07:44:29.065Z,35.67
2018-07-02T07:47:03.423Z,35.77
2018-07-02T07:49:37.761Z,36.19
2018-07-02T07:52:12.331Z,37.37
2018-07-02T07:54:46.783Z,36.83
2018-07-02T07:57:21.169Z,37.09
2018-07-02T07:59:55.440Z,38.26
2018-07-02T08:02:29.864Z,36.77
2018-07-02T08:05:04.772Z,36.36
2018-07-02T08:07:39.204Z,37.19
2018-07-02T08:10:13.607Z,36.88
2018-07-02T08:12:47.980Z,36.81
2018-07-02T08:15:22.365Z,36.52
2018-07-02T08:17:56.724Z,36.00
2018-07-02T08:20:30.954Z,36.18
2018-07-02T08:23:05.181Z,36.31
2018-07-02T08:25:39.639Z,35.43
2018-07-02T08:28:14.083Z,37.55
2018-07-02T08:30:48.618Z,37.57
2018-07-02T08:33:23.196Z,37.39
2018-07-02T08:35:57.632Z,35.85
2018-07-02T08:38:32.022Z,36.90
2018-07-02T08:41:06.428Z,36.32
2018-07-02T08:43:40.744Z,37.68
2018-07-02T08:46:15.111Z,40.04
2018-07-02T08:48:49.531Z,38.30
2018-07-02T08:51:23.887Z,38.26
2018-07-02T08:53:58.288Z,39.18
2018-07-02T08:56:32.695Z,38.80
2018-07-02T08:59:07.043Z,38.67
2018-07-02T09:01:41.497Z,38.83
2018-07-02T09:04:15.825Z,37.81
2018-07-02T09:06:50.205Z,35.83
2018-07-02T09:09:24.579Z,37.24
2018-07-02T09:11:58.813Z,36.63
2018-07-02T09:14:33.089Z,37.60
2018-07-02T09:17:07.459Z,39.32
2018-07-02T09:19:41.707Z,37.04
2018-07-02T09:22:15.920Z,37.76
2018-07-02T09:24:50.153Z,39.24
2018-07-02T09:27:24.564Z,36.54
2018-07-02T09:29:58.874Z,38.74
2018-07-02T09:32:33.260Z,38.01
2018-07-02T09:35:07.714Z,38.40
2018-07-02T09:37:42.132Z,39.34
2018-07-02T09:40:16.571Z,38.23
2018-07-02T09:42:50.872Z,37.67
2018-07-02T09:45:25.213Z,36.82
2018-07-02T09:47:59.545Z,38.11
2018-07-02T09:50:33.858Z,37.02
2018-07-02T09:53:08.388Z,39.78
2018-07-02T09:55:43.031Z,39.36
2018-07-02T09:58:17.513Z,38.45
2018-07-02T10:00:51.831Z,38.17
2018-07-02T10:03:26.259Z,39.74
2018-07-02T10:06:00.687Z,39.10
2018-07-02T10:08:35.060Z,39.34
2018-07-02T10:11:09.395Z,37.95
2018-07-02T10:13:43.725Z,36.91
2018-07-02T10:16:18.143Z,37.24
2018-07-02T10:18:52.543Z,37.46
2018-07-02T10:21:26.828Z,37.68
2018-07-02T10:24:01.248Z,37.07
2018-07-02T10:26:35.709Z,37.48
2018-07-02T10:29:10.212Z,36.16
2018-07-02T10:31:44.649Z,36.79
2018-07-02T10:34:19.103Z,39.98
2018-07-02T10:36:53.348Z,39.54
2018-07-02T10:39:27.664Z,40.49
2018-07-02T10:42:02.046Z,38.32
2018-07-02T10:44:36.492Z,39.64
2018-07-02T10:47:10.887Z,37.94
2018-07-02T10:49:45.127Z,39.47
2018-07-02T10:52:19.511Z,38.00
2018-07-02T10:54:53.944Z,37.63
2018-07-02T10:57:28.340Z,35.60
2018-07-02T11:00:02.801Z,38.20
2018-07-02T11:02:37.339Z,37.79
2018-07-02T11:05:11.748Z,37.77
2018-07-02T11:07:46.132Z,39.09
2018-07-02T11:10:20.585Z,38.59
2018-07-02T11:12:54.828Z,39.02
2018-07-02T11:15:29.211Z,38.88
2018-07-02T11:18:07.561Z,39.24
2018-07-02T11:20:42.298Z,38.92
2018-07-02T11:23:16.574Z,37.70
2018-07-02T11:25:50.963Z,37.08
2018-07-02T11:28:25.380Z,36.25
2018-07-02T11:30:59.784Z,38.48
2018-07-02T11:33:34.172Z,37.68
2018-07-02T11:36:08.398Z,37.50
2018-07-02T11:38:42.614Z,37.26
2018-07-02T11:41:16.976Z,36.75
2018-07-02T11:43:51.351Z,38.05
2018-07-02T11:46:25.699Z,38.37
2018-07-02T11:49:00.121Z,37.52
2018-07-02T11:51:34.586Z,37.32
2018-07-02T11:54:08.970Z,35.66
2018-07-02T11:56:43.192Z,33.70
2018-07-02T11:59:17.620Z,32.88
2018-07-02T12:01:51.900Z,31.89
2018-07-02T12:04:26.283Z,31.58
2018-07-02T12:07:00.641Z,29.66
2018-07-02T12:09:34.975Z,29.82
2018-07-02T12:12:09.332Z,29.31
2018-07-02T12:14:43.643Z,29.21
2018-07-02T12:17:18.048Z,28.78
2018-07-02T12:19:52.315Z,27.13
2018-07-02T12:22:26.876Z,27.07
2018-07-02T12:25:01.100Z,27.25
2018-07-02T12:27:35.440Z,27.53
2018-07-02T12:30:09.785Z,27.44
2018-07-02T12:32:44.023Z,27.43
2018-07-02T12:35:18.205Z,27.26
2018-07-02T12:37:52.674Z,27.27
2018-07-02T12:40:27.095Z,27.38
2018-07-02T12:43:01.500Z,27.32
2018-07-02T12:45:35.901Z,27.14
2018-07-02T12:48:10.223Z,27.10
2018-07-02T12:50:44.435Z,26.86
2018-07-02T12:53:18.651Z,27.07
2018-07-02T12:55:52.887Z,27.02
2018-07-02T12:58:27.324Z,27.06
2018-07-02T13:01:01.736Z,26.97
2018-07-02T13:03:36.212Z,26.99
2018-07-02T13:06:10.479Z,26.99
2018-07-02T13:08:44.865Z,27.06
2018-07-02T13:11:19.267Z,27.11
2018-07-02T13:13:53.600Z,27.08
2018-07-02T13:16:28.057Z,27.10
2018-07-02T13:19:02.623Z,27.10
2018-07-02T13:21:37.536Z,27.02
2018-07-02T13:24:12.576Z,27.12
2018-07-02T13:26:47.134Z,27.24
2018-07-02T13:29:21.590Z,27.29
2018-07-02T13:31:56.097Z,27.36
2018-07-02T13:34:30.612Z,27.18
2018-07-02T13:37:05.145Z,27.30
2018-07-02T13:39:39.437Z,27.37
2018-07-02T13:42:13.924Z,27.19
2018-07-02T13:44:48.481Z,27.15
2018-07-02T13:47:23.029Z,27.51
2018-07-02T13:49:57.656Z,27.76
2018-07-02T13:52:32.230Z,27.80
2018-07-02T13:55:06.916Z,27.86
2018-07-02T13:57:41.553Z,27.81
2018-07-02T14:00:15.968Z,27.80
2018-07-02T14:02:50.350Z,28.14
2018-07-02T14:05:24.855Z,28.56
2018-07-02T14:07:59.457Z,28.82
2018-07-02T14:10:33.882Z,28.52
2018-07-02T14:13:08.368Z,28.72
2018-07-02T14:15:42.889Z,28.53
2018-07-02T14:18:17.271Z,28.63
2018-07-02T14:20:51.797Z,28.65
2018-07-02T14:23:26.196Z,28.89
2018-07-02T14:26:00.608Z,28.73
2018-07-02T14:28:35.194Z,29.08
2018-07-02T14:31:09.624Z,29.99
2018-07-02T14:33:44.187Z,30.89
2018-07-02T14:36:18.562Z,31.55
2018-07-02T14:38:53.192Z,31.54
2018-07-02T14:41:27.757Z,31.92
2018-07-02T14:44:02.215Z,32.28
2018-07-02T14:46:36.608Z,32.76
2018-07-02T14:49:10.924Z,33.76
2018-07-02T14:51:45.428Z,33.51
2018-07-02T14:54:20.052Z,32.72
2018-07-02T14:56:54.506Z,32.86
2018-07-02T14:59:28.932Z,32.08
2018-07-02T15:02:03.325Z,32.42
2018-07-02T15:04:37.653Z,33.28
2018-07-02T15:07:12.144Z,33.12
2018-07-02T15:09:46.666Z,32.57
2018-07-02T15:12:21.140Z,32.08
2018-07-02T15:14:55.701Z,32.27
2018-07-02T15:17:30.158Z,31.17
2018-07-02T15:20:04.747Z,30.86
2018-07-02T15:22:39.337Z,30.52
2018-07-02T15:25:13.942Z,29.94
2018-07-02T15:27:48.616Z,29.21
2018-07-02T15:30:23.174Z,29.10
2018-07-02T15:32:57.824Z,28.39
2018-07-02T15:35:32.575Z,28.07
2018-07-02T15:38:07.119Z,27.87
2018-07-02T15:40:41.692Z,27.78
2018-07-02T15:43:16.239Z,27.83
2018-07-02T15:45:50.688Z,27.88
2018-07-02T15:48:25.149Z,27.91
2018-07-02T15:50:59.798Z,27.83
2018-07-02T15:53:34.344Z,27.79
2018-07-02T15:56:08.848Z,27.52
2018-07-02T15:58:43.399Z,27.23
2018-07-02T16:01:17.967Z,27.14
2018-07-02T16:03:52.489Z,26.99
2018-07-02T16:06:26.852Z,27.05
2018-07-02T16:09:01.482Z,26.90
2018-07-02T16:11:36.044Z,26.91
2018-07-02T16:14:10.481Z,26.69
2018-07-02T16:16:44.934Z,26.49
2018-07-02T16:19:19.558Z,26.47
2018-07-02T16:21:54.232Z,26.47
2018-07-02T16:24:28.717Z,26.51
2018-07-02T16:27:03.257Z,26.31
2018-07-02T16:29:37.822Z,26.19
2018-07-02T16:32:12.336Z,26.10
2018-07-02T16:34:46.884Z,26.12
2018-07-02T16:37:21.530Z,26.07
2018-07-02T16:39:56.097Z,26.02
2018-07-02T16:42:30.960Z,25.85
2018-07-02T16:45:05.704Z,25.88
2018-07-02T16:47:40.221Z,25.91
2018-07-02T16:50:14.868Z,25.89
2018-07-02T16:52:49.472Z,25.80
2018-07-02T16:55:24.062Z,25.75
2018-07-02T16:57:58.484Z,25.87
2018-07-02T17:00:32.988Z,25.83
2018-07-02T17:03:07.654Z,25.69
2018-07-02T17:05:42.195Z,25.56
2018-07-02T17:08:16.725Z,25.44
2018-07-02T17:10:51.162Z,25.38
2018-07-02T17:13:26.029Z,25.37
2018-07-02T17:16:00.495Z,25.29
2018-07-02T17:18:35.066Z,25.27
2018-07-02T17:21:09.530Z,25.25
2018-07-02T17:23:43.970Z,25.28
2018-07-02T17:26:18.352Z,25.27
2018-07-02T17:28:52.962Z,25.22
2018-07-02T17:31:27.420Z,25.22
2018-07-02T17:34:01.801Z,25.13
2018-07-02T17:36:36.443Z,25.13
2018-07-02T17:39:11.764Z,25.08
2018-07-02T17:41:46.153Z,25.03
2018-07-02T17:44:20.539Z,24.97
2018-07-02T17:46:55.105Z,24.92
2018-07-02T17:49:29.592Z,24.89
2018-07-02T17:52:04.250Z,24.90
2018-07-02T17:54:38.717Z,24.89
2018-07-02T17:57:13.109Z,24.81
2018-07-02T17:59:47.581Z,24.76
2018-07-02T18:02:23.620Z,24.71
2018-07-02T18:04:58.056Z,24.66
2018-07-02T18:07:32.494Z,24.70
2018-07-02T18:10:07.245Z,24.65
2018-07-02T18:12:41.698Z,24.57
2018-07-02T18:15:16.054Z,24.52
2018-07-02T18:17:50.792Z,24.50
2018-07-02T18:20:25.180Z,24.46
2018-07-02T18:22:59.528Z,24.35
2018-07-02T18:25:33.953Z,24.33
2018-07-02T18:28:08.362Z,24.26
2018-07-02T18:30:42.989Z,24.26
2018-07-02T18:33:17.617Z,24.17
2018-07-02T18:35:52.107Z,24.15
2018-07-02T18:38:26.768Z,24.07
2018-07-02T18:41:01.349Z,24.00
2018-07-02T18:43:36.238Z,23.97
2018-07-02T18:46:10.727Z,23.87
2018-07-02T18:48:45.056Z,23.83
2018-07-02T18:51:19.414Z,23.78
2018-07-02T18:53:53.789Z,23.75
2018-07-02T18:56:28.533Z,23.69
2018-07-02T18:59:03.004Z,23.61
2018-07-02T19:01:37.356Z,23.60
2018-07-02T19:04:11.848Z,23.49
2018-07-02T19:06:46.349Z,23.41
2018-07-02T19:09:21.064Z,23.33
2018-07-02T19:11:55.568Z,23.35
2018-07-02T19:14:30.000Z,23.21
2018-07-02T19:17:04.511Z,23.17
2018-07-02T19:19:38.978Z,23.06
2018-07-02T19:22:13.441Z,23.02
2018-07-02T19:24:48.099Z,22.96
2018-07-02T19:27:22.609Z,22.95
2018-07-02T19:29:57.136Z,22.86
2018-07-02T19:32:31.672Z,22.73
2018-07-02T19:35:06.130Z,22.69
2018-07-02T19:37:40.717Z,22.65
2018-07-02T19:40:15.188Z,22.56
2018-07-02T19:42:49.792Z,22.53
2018-07-02T19:45:24.241Z,22.39
2018-07-02T19:47:58.625Z,22.30
2018-07-02T19:50:32.956Z,22.23
2018-07-02T19:53:07.477Z,22.17
2018-07-02T19:55:41.829Z,22.12
2018-07-02T19:58:16.194Z,22.00
2018-07-02T20:00:50.672Z,21.96
2018-07-02T20:03:25.105Z,21.96
2018-07-02T20:05:59.562Z,21.93
2018-07-02T20:08:34.125Z,21.80
2018-07-02T20:11:08.521Z,21.75
2018-07-02T20:13:43.129Z,21.66
2018-07-02T20:16:17.658Z,21.55
2018-07-02T20:18:52.258Z,21.52
2018-07-02T20:21:26.585Z,21.47
2018-07-02T20:24:01.134Z,21.40
2018-07-02T20:26:35.648Z,21.27
2018-07-02T20:29:10.069Z,21.17
2018-07-02T20:31:44.736Z,21.20
2018-07-02T20:34:19.201Z,21.16
2018-07-02T20:36:53.748Z,21.08
2018-07-02T20:39:28.216Z,21.10
2018-07-02T20:42:02.793Z,21.03
2018-07-02T20:44:37.213Z,20.92
2018-07-02T20:47:12.231Z,20.94
2018-07-02T20:49:46.730Z,20.84
2018-07-02T20:52:21.080Z,20.83
2018-07-02T20:54:55.525Z,20.76
2018-07-02T20:57:29.910Z,20.78
2018-07-02T21:00:05.609Z,20.74
2018-07-02T21:02:39.966Z,20.67
2018-07-02T21:05:14.436Z,20.62
2018-07-02T21:07:48.784Z,20.60
2018-07-02T21:10:23.493Z,20.55
2018-07-02T21:12:58.103Z,20.49
2018-07-02T21:15:32.525Z,20.51
2018-07-02T21:18:06.996Z,20.54
2018-07-02T21:20:41.567Z,20.44
2018-07-02T21:23:16.123Z,20.36
2018-07-02T21:25:50.478Z,20.29
2018-07-02T21:28:25.154Z,20.26
2018-07-02T21:30:59.573Z,20.27
2018-07-02T21:33:34.149Z,20.21
2018-07-02T21:36:08.704Z,20.13
2018-07-02T21:38:43.310Z,20.09
2018-07-02T21:41:17.768Z,20.09
2018-07-02T21:43:52.476Z,20.08
2018-07-02T21:46:27.089Z,20.05
2018-07-02T21:49:01.682Z,20.04
2018-07-02T21:51:36.149Z,20.01
2018-07-02T21:54:10.748Z,19.94
2018-07-02T21:56:45.409Z,19.85
2018-07-02T21:59:19.854Z,19.76
2018-07-02T22:01:54.368Z,19.73
2018-07-02T22:04:28.723Z,19.68
2018-07-02T22:07:03.256Z,19.75
2018-07-02T22:09:37.800Z,19.70
2018-07-02T22:12:12.276Z,19.66
2018-07-02T22:14:46.913Z,19.58
2018-07-02T22:17:21.776Z,19.49
2018-07-02T22:19:56.448Z,19.46
2018-07-02T22:22:31.106Z,19.43
2018-07-02T22:25:05.571Z,19.38
2018-07-02T22:27:40.046Z,19.40
2018-07-02T22:30:14.598Z,19.31
2018-07-02T22:32:49.048Z,19.20
2018-07-02T22:35:23.658Z,19.02
2018-07-02T22:37:58.090Z,18.95
2018-07-02T22:40:32.570Z,18.97
2018-07-02T22:43:07.001Z,18.96
2018-07-02T22:45:41.477Z,19.01
2018-07-02T22:48:16.147Z,18.92
2018-07-02T22:50:51.628Z,18.88
2018-07-02T22:53:26.218Z,18.84
2018-07-02T22:56:03.382Z,18.93
2018-07-02T22:58:37.911Z,18.89
2018-07-02T23:01:12.465Z,18.90
2018-07-02T23:03:46.966Z,18.81
2018-07-02T23:06:21.644Z,18.78
2018-07-02T23:08:56.292Z,18.81
2018-07-02T23:11:30.729Z,18.83
2018-07-02T23:14:05.221Z,18.84
2018-07-02T23:16:39.723Z,18.79
2018-07-02T23:19:14.290Z,18.84
2018-07-02T23:21:48.768Z,18.77
2018-07-02T23:24:23.422Z,18.74
2018-07-02T23:26:58.045Z,18.72
2018-07-02T23:29:32.518Z,18.71
2018-07-02T23:32:07.044Z,18.58
2018-07-02T23:34:41.770Z,18.65
2018-07-02T23:37:16.337Z,18.64
2018-07-02T23:39:50.878Z,18.63
2018-07-02T23:42:25.280Z,18.51
2018-07-02T23:44:59.799Z,18.53
2018-07-02T23:47:34.216Z,18.51
2018-07-02T23:50:08.626Z,18.45
2018-07-02T23:52:43.254Z,18.37
2018-07-02T23:55:17.834Z,18.34
2018-07-02T23:57:52.336Z,18.33
